createdAt,value
2018-10-17T00:00:59.270Z,33.00
2018-10-17T00:01:59.224Z,33.60
2018-10-17T00:02:59.181Z,33.30
2018-10-17T00:03:59.142Z,32.30
2018-10-17T00:04:59.108Z,32.10
2018-10-17T00:05:59.044Z,33.50
2018-10-17T00:06:59.039Z,34.80
2018-10-17T00:07:58.971Z,33.70
2018-10-17T00:08:58.937Z,32.40
2018-10-17T00:09:58.877Z,30.70
2018-10-17T00:10:58.940Z,30.40
2018-10-17T00:11:58.793Z,29.50
2018-10-17T00:12:58.780Z,31.10
2018-10-17T00:13:58.774Z,31.20
2018-10-17T00:15:13.594Z,31.60
2018-10-17T00:15:58.653Z,32.30
2018-10-17T00:16:58.724Z,37.60
2018-10-17T00:17:58.564Z,36.20
2018-10-17T00:18:58.543Z,57.70
2018-10-17T00:19:58.480Z,92.60
2018-10-17T00:20:58.438Z,127.70
2018-10-17T00:21:58.421Z,52.30
2018-10-17T00:22:58.432Z,30.70
2018-10-17T00:23:58.317Z,32.20
2018-10-17T00:24:58.327Z,33.80
2018-10-17T00:25:58.284Z,39.30
2018-10-17T00:26:58.277Z,51.30
2018-10-17T00:27:58.161Z,45.20
2018-10-17T00:28:58.168Z,52.60
2018-10-17T00:29:58.095Z,35.30
2018-10-17T00:30:58.075Z,32.20
2018-10-17T00:31:57.998Z,34.80
2018-10-17T00:32:57.964Z,32.00
2018-10-17T00:33:57.909Z,41.40
2018-10-17T00:34:57.897Z,33.00
2018-10-17T00:35:57.830Z,32.40
2018-10-17T00:36:57.815Z,31.90
2018-10-17T00:37:57.746Z,35.20
2018-10-17T00:38:57.722Z,32.40
2018-10-17T00:39:57.659Z,33.60
2018-10-17T00:40:57.680Z,34.50
2018-10-17T00:41:57.584Z,34.40
2018-10-17T00:42:57.597Z,35.30
2018-10-17T00:43:57.500Z,35.90
2018-10-17T00:44:57.478Z,34.00
2018-10-17T00:45:57.436Z,36.00
2018-10-17T00:46:57.401Z,33.00
2018-10-17T00:47:57.357Z,32.30
2018-10-17T00:48:57.321Z,32.50
2018-10-17T00:49:57.259Z,31.80
2018-10-17T00:50:57.221Z,31.90
2018-10-17T00:51:57.199Z,31.60
2018-10-17T00:52:57.165Z,35.40
2018-10-17T00:53:57.106Z,32.80
2018-10-17T00:54:57.100Z,182.90
2018-10-17T00:55:57.024Z,238.60
2018-10-17T00:56:57.000Z,223.30
2018-10-17T00:57:56.964Z,138.30
2018-10-17T00:58:56.890Z,84.90
2018-10-17T00:59:56.856Z,60.70
2018-10-17T01:00:56.927Z,47.80
2018-10-17T01:01:56.781Z,39.20
2018-10-17T01:02:56.741Z,33.70
2018-10-17T01:03:56.718Z,36.50
2018-10-17T01:04:56.694Z,41.10
2018-10-17T01:05:56.632Z,44.30
2018-10-17T01:06:56.596Z,40.90
2018-10-17T01:07:56.537Z,38.60
2018-10-17T01:08:56.488Z,35.80
2018-10-17T01:09:56.446Z,38.60
2018-10-17T01:10:56.421Z,40.80
2018-10-17T01:11:56.389Z,42.20
2018-10-17T01:12:56.340Z,34.90
2018-10-17T01:13:56.281Z,41.80
2018-10-17T01:14:56.243Z,108.40
2018-10-17T01:15:56.209Z,85.80
2018-10-17T01:16:56.212Z,51.70
2018-10-17T01:17:56.132Z,38.40
2018-10-17T01:18:56.102Z,38.40
2018-10-17T01:19:56.039Z,35.00
2018-10-17T01:20:56.020Z,36.60
2018-10-17T01:21:55.963Z,38.70
2018-10-17T01:22:55.936Z,44.80
2018-10-17T01:23:55.890Z,51.20
2018-10-17T01:24:55.851Z,38.30
2018-10-17T01:25:55.801Z,48.00
2018-10-17T01:26:55.760Z,40.10
2018-10-17T01:27:55.723Z,42.50
2018-10-17T01:28:55.692Z,37.90
2018-10-17T01:29:55.631Z,39.40
2018-10-17T01:30:55.611Z,37.40
2018-10-17T01:31:55.545Z,45.00
2018-10-17T01:32:55.519Z,41.40
2018-10-17T01:33:55.481Z,39.10
2018-10-17T01:34:55.425Z,41.60
2018-10-17T01:35:55.394Z,42.50
2018-10-17T01:36:55.410Z,39.70
2018-10-17T01:37:55.308Z,38.90
2018-10-17T01:38:55.268Z,48.70
2018-10-17T01:39:55.221Z,53.30
2018-10-17T01:40:55.244Z,47.10
2018-10-17T01:41:55.151Z,43.70
2018-10-17T01:42:55.173Z,37.40
2018-10-17T01:43:55.073Z,37.10
2018-10-17T01:44:55.031Z,38.10
2018-10-17T01:45:55.012Z,38.80
2018-10-17T01:46:54.954Z,42.10
2018-10-17T01:47:54.908Z,40.00
2018-10-17T01:48:54.865Z,42.50
2018-10-17T01:49:54.826Z,51.60
2018-10-17T01:50:54.793Z,46.90
2018-10-17T01:51:54.741Z,38.30
2018-10-17T01:52:54.724Z,40.40
2018-10-17T01:53:54.661Z,38.60
2018-10-17T01:54:54.660Z,37.90
2018-10-17T01:55:54.563Z,37.20
2018-10-17T01:56:54.542Z,38.10
2018-10-17T01:57:54.517Z,39.30
2018-10-17T01:58:54.466Z,37.50
2018-10-17T01:59:54.425Z,40.60
2018-10-17T02:00:54.400Z,41.70
2018-10-17T02:01:54.359Z,37.40
2018-10-17T02:02:54.284Z,48.10
2018-10-17T02:03:54.261Z,47.40
2018-10-17T02:04:54.232Z,50.40
2018-10-17T02:05:54.170Z,53.50
2018-10-17T02:06:54.177Z,75.30
2018-10-17T02:07:54.077Z,40.80
2018-10-17T02:08:54.041Z,41.20
2018-10-17T02:09:54.005Z,38.40
2018-10-17T02:10:53.972Z,41.90
2018-10-17T02:11:53.913Z,43.50
2018-10-17T02:12:53.926Z,43.90
2018-10-17T02:13:53.850Z,47.30
2018-10-17T02:14:53.808Z,43.50
2018-10-17T02:15:53.759Z,50.90
2018-10-17T02:16:53.735Z,61.50
2018-10-17T02:17:53.688Z,109.40
2018-10-17T02:18:53.652Z,107.20
2018-10-17T02:19:53.594Z,159.70
2018-10-17T02:20:53.554Z,104.60
2018-10-17T02:21:53.503Z,244.00
2018-10-17T02:22:53.536Z,360.00
2018-10-17T02:23:53.481Z,373.10
2018-10-17T02:24:53.417Z,568.20
2018-10-17T02:25:53.404Z,413.80
2018-10-17T02:26:53.323Z,47.00
2018-10-17T02:27:53.258Z,43.90
2018-10-17T02:28:53.225Z,47.60
2018-10-17T02:29:53.259Z,49.50
2018-10-17T02:30:53.161Z,46.10
2018-10-17T02:31:53.112Z,44.20
2018-10-17T02:32:53.073Z,44.60
2018-10-17T02:33:53.052Z,46.70
2018-10-17T02:34:52.997Z,42.90
2018-10-17T02:35:52.946Z,74.30
2018-10-17T02:36:52.914Z,144.50
2018-10-17T02:37:52.880Z,101.10
2018-10-17T02:38:52.846Z,36.20
2018-10-17T02:39:52.769Z,40.30
2018-10-17T02:40:52.778Z,38.60
2018-10-17T02:41:52.694Z,39.80
2018-10-17T02:42:52.657Z,161.30
2018-10-17T02:43:52.613Z,271.80
2018-10-17T02:44:52.568Z,346.20
2018-10-17T02:45:52.531Z,197.20
2018-10-17T02:46:52.530Z,259.50
2018-10-17T02:47:52.461Z,306.50
2018-10-17T02:48:52.456Z,53.60
2018-10-17T02:49:52.378Z,37.10
2018-10-17T02:50:52.326Z,38.40
2018-10-17T02:51:52.285Z,38.40
2018-10-17T02:52:52.270Z,38.80
2018-10-17T02:53:52.201Z,46.70
2018-10-17T02:54:52.177Z,49.90
2018-10-17T02:55:52.130Z,40.70
2018-10-17T02:56:52.079Z,57.70
2018-10-17T02:57:52.076Z,45.40
2018-10-17T02:58:52.018Z,44.20
2018-10-17T02:59:51.986Z,45.50
2018-10-17T03:00:52.035Z,51.30
2018-10-17T03:01:51.887Z,41.20
2018-10-17T03:02:51.839Z,39.70
2018-10-17T03:03:51.801Z,36.40
2018-10-17T03:04:51.803Z,39.00
2018-10-17T03:05:51.715Z,36.20
2018-10-17T03:06:51.680Z,41.70
2018-10-17T03:07:51.674Z,35.40
2018-10-17T03:08:51.604Z,36.00
2018-10-17T03:09:51.567Z,36.50
2018-10-17T03:10:51.525Z,42.30
2018-10-17T03:11:51.488Z,47.00
2018-10-17T03:12:51.438Z,42.50
2018-10-17T03:13:51.399Z,40.30
2018-10-17T03:14:51.381Z,50.30
2018-10-17T03:15:51.341Z,44.10
2018-10-17T03:16:51.291Z,36.60
2018-10-17T03:17:51.228Z,37.20
2018-10-17T03:18:51.238Z,42.70
2018-10-17T03:19:51.162Z,43.90
2018-10-17T03:20:51.106Z,51.60
2018-10-17T03:21:51.069Z,57.40
2018-10-17T03:22:51.084Z,40.30
2018-10-17T03:23:51.001Z,41.60
2018-10-17T03:24:50.984Z,42.90
2018-10-17T03:25:50.893Z,42.30
2018-10-17T03:26:50.858Z,41.70
2018-10-17T03:27:50.845Z,41.30
2018-10-17T03:28:50.811Z,43.10
2018-10-17T03:29:50.744Z,45.70
2018-10-17T03:30:50.732Z,45.70
2018-10-17T03:31:50.667Z,46.10
2018-10-17T03:32:50.604Z,41.70
2018-10-17T03:33:50.577Z,42.30
2018-10-17T03:34:50.540Z,41.70
2018-10-17T03:35:50.500Z,42.40
2018-10-17T03:36:50.447Z,42.60
2018-10-17T03:37:50.407Z,41.60
2018-10-17T03:38:50.372Z,41.40
2018-10-17T03:39:50.328Z,41.20
2018-10-17T03:40:50.306Z,40.20
2018-10-17T03:41:50.237Z,44.90
2018-10-17T03:42:50.213Z,45.50
2018-10-17T03:43:50.199Z,41.10
2018-10-17T03:44:50.131Z,44.50
2018-10-17T03:45:50.073Z,48.30
2018-10-17T03:46:50.042Z,42.50
2018-10-17T03:47:49.998Z,45.70
2018-10-17T03:48:49.953Z,49.40
2018-10-17T03:49:49.990Z,40.30
2018-10-17T03:50:49.872Z,42.70
2018-10-17T03:51:49.823Z,43.50
2018-10-17T03:52:49.793Z,43.40
2018-10-17T03:53:49.753Z,42.90
2018-10-17T03:54:49.714Z,47.10
2018-10-17T03:55:49.670Z,42.50
2018-10-17T03:56:49.617Z,46.00
2018-10-17T03:57:49.593Z,41.70
2018-10-17T03:58:49.553Z,45.30
2018-10-17T03:59:49.583Z,50.10
2018-10-17T04:00:49.499Z,54.00
2018-10-17T04:01:49.464Z,49.80
2018-10-17T04:02:49.397Z,53.30
2018-10-17T04:03:49.345Z,46.70
2018-10-17T04:04:49.298Z,47.60
2018-10-17T04:05:49.267Z,200.20
2018-10-17T04:06:49.228Z,260.90
2018-10-17T04:07:49.187Z,212.00
2018-10-17T04:08:49.146Z,159.50
2018-10-17T04:09:49.111Z,234.30
2018-10-17T04:10:49.083Z,44.60
2018-10-17T04:11:49.009Z,44.60
2018-10-17T04:12:48.976Z,46.00
2018-10-17T04:13:48.926Z,63.40
2018-10-17T04:14:48.924Z,42.80
2018-10-17T04:15:48.849Z,52.40
2018-10-17T04:16:48.844Z,49.10
2018-10-17T04:17:48.775Z,46.40
2018-10-17T04:18:48.736Z,45.50
2018-10-17T04:19:48.690Z,41.30
2018-10-17T04:20:48.695Z,42.40
2018-10-17T04:21:48.597Z,43.70
2018-10-17T04:22:48.570Z,46.30
2018-10-17T04:23:48.529Z,38.50
2018-10-17T04:24:48.476Z,106.80
2018-10-17T04:25:48.461Z,151.70
2018-10-17T04:26:48.392Z,306.50
2018-10-17T04:27:48.364Z,425.90
2018-10-17T04:28:48.309Z,512.80
2018-10-17T04:29:48.275Z,399.10
2018-10-17T04:30:48.236Z,227.80
2018-10-17T04:31:48.195Z,54.20
2018-10-17T04:32:48.196Z,126.00
2018-10-17T04:33:48.139Z,208.80
2018-10-17T04:34:48.058Z,207.30
2018-10-17T04:35:48.050Z,319.70
2018-10-17T04:36:47.978Z,165.10
2018-10-17T04:37:47.950Z,69.50
2018-10-17T04:38:47.935Z,67.60
2018-10-17T04:39:47.886Z,79.00
2018-10-17T04:40:47.858Z,265.60
2018-10-17T04:41:47.785Z,507.40
2018-10-17T04:42:47.753Z,194.10
2018-10-17T04:43:47.697Z,120.30
2018-10-17T04:44:47.653Z,137.20
2018-10-17T04:45:47.637Z,239.30
2018-10-17T04:46:47.574Z,259.20
2018-10-17T04:47:47.616Z,299.10
2018-10-17T04:48:47.495Z,278.30
2018-10-17T04:49:47.453Z,173.20
2018-10-17T04:50:47.424Z,245.00
2018-10-17T04:51:47.369Z,189.30
2018-10-17T04:52:47.340Z,168.70
2018-10-17T04:53:47.293Z,313.10
2018-10-17T04:54:47.241Z,209.30
2018-10-17T04:55:47.209Z,186.30
2018-10-17T04:56:47.174Z,79.70
2018-10-17T04:57:47.133Z,69.30
2018-10-17T04:58:47.079Z,202.20
2018-10-17T04:59:47.055Z,234.60
2018-10-17T05:00:47.002Z,349.40
2018-10-17T05:01:46.950Z,480.80
2018-10-17T05:02:46.981Z,496.10
2018-10-17T05:03:46.905Z,339.30
2018-10-17T05:04:46.868Z,111.40
2018-10-17T05:05:46.835Z,115.60
2018-10-17T05:06:46.762Z,123.10
2018-10-17T05:07:46.724Z,156.20
2018-10-17T05:08:46.697Z,151.40
2018-10-17T05:09:46.654Z,54.00
2018-10-17T05:10:46.593Z,153.40
2018-10-17T05:11:46.548Z,127.90
2018-10-17T05:12:46.500Z,117.20
2018-10-17T05:13:46.499Z,196.40
2018-10-17T05:14:46.428Z,35.10
2018-10-17T05:15:46.381Z,39.00
2018-10-17T05:16:46.381Z,51.80
2018-10-17T05:17:46.299Z,86.10
2018-10-17T05:18:46.275Z,116.20
2018-10-17T05:19:46.213Z,139.20
2018-10-17T05:20:46.182Z,172.50
2018-10-17T05:21:46.127Z,116.50
2018-10-17T05:22:46.087Z,271.30
2018-10-17T05:23:46.055Z,291.50
2018-10-17T05:24:46.001Z,95.20
2018-10-17T05:25:45.963Z,215.30
2018-10-17T05:26:45.952Z,79.70
2018-10-17T05:27:45.884Z,54.70
2018-10-17T05:28:45.853Z,77.90
2018-10-17T05:29:45.878Z,115.70
2018-10-17T05:30:45.760Z,79.60
2018-10-17T05:31:45.708Z,156.50
2018-10-17T05:32:45.673Z,241.10
2018-10-17T05:33:45.634Z,209.10
2018-10-17T05:34:45.594Z,273.90
2018-10-17T05:35:45.579Z,287.70
2018-10-17T05:36:45.538Z,225.00
2018-10-17T05:37:45.640Z,137.30
2018-10-17T05:38:45.429Z,115.40
2018-10-17T05:39:45.414Z,84.70
2018-10-17T05:40:45.339Z,64.00
2018-10-17T05:41:45.315Z,76.20
2018-10-17T05:42:45.283Z,127.40
2018-10-17T05:43:45.220Z,124.80
2018-10-17T05:44:45.181Z,211.20
2018-10-17T05:45:45.143Z,193.90
2018-10-17T05:46:45.112Z,207.20
2018-10-17T05:47:45.048Z,70.00
2018-10-17T05:48:45.023Z,50.20
2018-10-17T05:49:44.999Z,61.80
2018-10-17T05:50:44.952Z,77.80
2018-10-17T05:51:44.889Z,68.80
2018-10-17T05:52:44.843Z,82.10
2018-10-17T05:53:44.811Z,53.70
2018-10-17T05:54:44.758Z,67.40
2018-10-17T05:55:44.807Z,62.50
2018-10-17T05:56:44.683Z,52.90
2018-10-17T05:57:44.652Z,51.70
2018-10-17T05:58:44.655Z,47.80
2018-10-17T05:59:44.600Z,65.40
2018-10-17T06:00:44.508Z,90.50
2018-10-17T06:01:44.515Z,67.40
2018-10-17T06:02:44.454Z,53.40
2018-10-17T06:03:44.385Z,58.00
2018-10-17T06:04:44.350Z,45.40
2018-10-17T06:05:44.308Z,41.20
2018-10-17T06:06:44.324Z,40.60
2018-10-17T06:07:44.229Z,49.70
2018-10-17T06:08:44.190Z,51.30
2018-10-17T06:09:44.166Z,46.70
2018-10-17T06:10:44.106Z,46.50
2018-10-17T06:11:44.119Z,51.30
2018-10-17T06:12:44.004Z,47.10
2018-10-17T06:13:43.991Z,49.20
2018-10-17T06:14:43.964Z,54.40
2018-10-17T06:15:43.919Z,55.60
2018-10-17T06:16:43.896Z,59.80
2018-10-17T06:17:43.800Z,55.30
2018-10-17T06:18:43.768Z,55.30
2018-10-17T06:19:43.735Z,53.20
2018-10-17T06:20:43.686Z,52.40
2018-10-17T06:21:43.646Z,56.70
2018-10-17T06:22:43.602Z,53.80
2018-10-17T06:23:43.585Z,56.00
2018-10-17T06:24:43.541Z,61.80
2018-10-17T06:25:43.480Z,60.30
2018-10-17T06:26:43.434Z,65.10
2018-10-17T06:27:43.420Z,67.30
2018-10-17T06:28:43.360Z,68.90
2018-10-17T06:29:43.324Z,71.00
2018-10-17T06:30:43.339Z,71.10
2018-10-17T06:31:43.232Z,80.90
2018-10-17T06:32:43.203Z,71.00
2018-10-17T06:33:43.190Z,66.40
2018-10-17T06:34:43.290Z,66.00
2018-10-17T06:35:43.080Z,65.20
2018-10-17T06:36:43.044Z,59.60
2018-10-17T06:37:43.008Z,53.60
2018-10-17T06:38:42.943Z,57.40
2018-10-17T06:39:42.932Z,64.00
2018-10-17T06:40:42.879Z,58.30
2018-10-17T06:41:42.844Z,53.00
2018-10-17T06:42:42.791Z,50.60
2018-10-17T06:43:43.048Z,49.90
2018-10-17T06:44:42.723Z,51.50
2018-10-17T06:45:42.671Z,52.80
2018-10-17T06:46:42.632Z,54.50
2018-10-17T06:47:42.584Z,64.50
2018-10-17T06:48:42.553Z,70.20
2018-10-17T06:49:42.510Z,55.60
2018-10-17T06:50:42.483Z,58.60
2018-10-17T06:51:42.436Z,63.50
2018-10-17T06:52:42.406Z,73.20
2018-10-17T06:53:42.358Z,60.00
2018-10-17T06:54:42.318Z,53.50
2018-10-17T06:55:42.274Z,56.40
2018-10-17T06:56:42.222Z,54.80
2018-10-17T06:57:42.195Z,50.00
2018-10-17T06:58:42.160Z,57.60
2018-10-17T06:59:42.120Z,53.80
2018-10-17T07:00:47.630Z,55.10
2018-10-17T07:01:42.056Z,46.50
2018-10-17T07:02:42.004Z,45.80
2018-10-17T07:03:41.959Z,49.20
2018-10-17T07:04:41.924Z,44.10
2018-10-17T07:05:41.874Z,50.00
2018-10-17T07:06:41.836Z,45.10
2018-10-17T07:07:41.804Z,45.30
2018-10-17T07:08:41.779Z,45.70
2018-10-17T07:09:41.769Z,44.70
2018-10-17T07:10:41.704Z,51.20
2018-10-17T07:11:41.625Z,45.30
2018-10-17T07:12:41.607Z,43.50
2018-10-17T07:13:41.593Z,41.00
2018-10-17T07:14:41.525Z,39.70
2018-10-17T07:15:41.649Z,41.40
2018-10-17T07:16:41.466Z,42.40
2018-10-17T07:17:41.415Z,39.20
2018-10-17T07:18:41.365Z,36.50
2018-10-17T07:19:41.341Z,36.20
2018-10-17T07:20:41.295Z,38.70
2018-10-17T07:21:41.274Z,35.60
2018-10-17T07:22:41.216Z,36.00
2018-10-17T07:23:41.181Z,32.80
2018-10-17T07:24:41.137Z,34.50
2018-10-17T07:25:41.098Z,32.70
2018-10-17T07:26:41.071Z,35.10
2018-10-17T07:27:41.023Z,32.80
2018-10-17T07:28:41.080Z,31.70
2018-10-17T07:29:41.075Z,29.50
2018-10-17T07:30:40.923Z,29.60
2018-10-17T07:31:40.881Z,28.90
2018-10-17T07:32:40.842Z,28.70
2018-10-17T07:33:40.802Z,30.40
2018-10-17T07:34:40.762Z,31.20
2018-10-17T07:35:40.773Z,30.20
2018-10-17T07:36:40.690Z,32.40
2018-10-17T07:37:40.688Z,33.60
2018-10-17T07:38:40.611Z,31.20
2018-10-17T07:39:40.591Z,31.10
2018-10-17T07:40:40.540Z,31.40
2018-10-17T07:41:40.496Z,31.50
2018-10-17T07:42:40.487Z,30.20
2018-10-17T07:43:40.449Z,29.40
2018-10-17T07:44:40.402Z,29.80
2018-10-17T07:45:40.387Z,26.80
2018-10-17T07:46:40.348Z,28.70
2018-10-17T07:47:40.289Z,29.00
2018-10-17T07:48:40.245Z,28.80
2018-10-17T07:49:40.217Z,27.70
2018-10-17T07:50:40.194Z,27.70
2018-10-17T07:51:40.166Z,28.20
2018-10-17T07:52:40.093Z,27.90
2018-10-17T07:53:40.158Z,29.60
2018-10-17T07:54:40.030Z,31.40
2018-10-17T07:55:39.995Z,30.00
2018-10-17T07:56:39.963Z,27.80
2018-10-17T07:57:39.938Z,27.20
2018-10-17T07:58:39.941Z,28.70
2018-10-17T07:59:39.891Z,27.30
2018-10-17T08:00:39.808Z,25.60
2018-10-17T08:01:39.789Z,26.90
2018-10-17T08:02:39.758Z,26.00
2018-10-17T08:03:39.698Z,25.50
2018-10-17T08:04:39.711Z,25.90
2018-10-17T08:05:39.647Z,25.40
2018-10-17T08:06:39.682Z,25.90
2018-10-17T08:07:39.545Z,26.80
2018-10-17T08:08:39.516Z,26.60
2018-10-17T08:09:39.512Z,27.50
2018-10-17T08:10:39.469Z,22.10
2018-10-17T08:11:39.414Z,19.00
2018-10-17T08:12:39.390Z,18.50
2018-10-17T08:13:39.344Z,19.90
2018-10-17T08:14:39.329Z,23.70
2018-10-17T08:15:39.290Z,25.40
2018-10-17T08:16:39.238Z,25.90
2018-10-17T08:17:39.217Z,25.70
2018-10-17T08:18:39.197Z,25.40
2018-10-17T08:19:39.143Z,24.20
2018-10-17T08:20:39.149Z,21.90
2018-10-17T08:21:39.069Z,19.80
2018-10-17T08:22:39.016Z,17.20
2018-10-17T08:23:39.049Z,18.30
2018-10-17T08:24:38.968Z,17.60
2018-10-17T08:25:38.968Z,22.60
2018-10-17T08:26:38.887Z,21.20
2018-10-17T08:27:38.920Z,17.90
2018-10-17T08:28:38.814Z,20.50
2018-10-17T08:29:38.798Z,19.20
2018-10-17T08:30:38.742Z,20.00
2018-10-17T08:31:38.718Z,20.60
2018-10-17T08:32:38.675Z,20.20
2018-10-17T08:33:38.639Z,20.40
2018-10-17T08:34:38.604Z,19.80
2018-10-17T08:35:38.599Z,18.60
2018-10-17T08:36:38.781Z,18.90
2018-10-17T08:37:38.982Z,16.00
2018-10-17T08:38:38.487Z,17.00
2018-10-17T08:39:38.471Z,18.40
2018-10-17T08:40:38.412Z,18.80
2018-10-17T08:41:38.363Z,19.80
2018-10-17T08:42:38.353Z,19.50
2018-10-17T08:43:38.318Z,19.10
2018-10-17T08:44:38.272Z,17.10
2018-10-17T08:45:38.254Z,15.10
2018-10-17T08:46:38.220Z,16.10
2018-10-17T08:47:38.218Z,17.30
2018-10-17T08:48:38.144Z,17.10
2018-10-17T08:49:38.133Z,16.00
2018-10-17T08:50:38.195Z,16.40
2018-10-17T08:51:38.057Z,17.50
2018-10-17T08:52:38.019Z,16.60
2018-10-17T08:53:38.068Z,18.20
2018-10-17T08:54:37.952Z,18.20
2018-10-17T08:55:37.910Z,18.80
2018-10-17T08:56:37.892Z,19.30
2018-10-17T08:57:37.882Z,16.80
2018-10-17T08:58:37.823Z,15.80
2018-10-17T08:59:37.792Z,15.00
2018-10-17T09:00:37.782Z,17.30
2018-10-17T09:01:37.742Z,18.50
2018-10-17T09:02:37.707Z,18.60
2018-10-17T09:03:37.681Z,18.80
2018-10-17T09:04:37.657Z,18.90
2018-10-17T09:05:37.609Z,16.70
2018-10-17T09:06:37.579Z,18.00
2018-10-17T09:07:37.576Z,19.40
2018-10-17T09:08:37.517Z,17.60
2018-10-17T09:09:37.511Z,16.10
2018-10-17T09:10:37.477Z,16.90
2018-10-17T09:11:37.440Z,17.70
2018-10-17T09:12:37.438Z,17.50
2018-10-17T09:13:37.515Z,17.60
2018-10-17T09:14:37.342Z,17.30
2018-10-17T09:15:38.542Z,16.50
2018-10-17T09:16:37.333Z,15.90
2018-10-17T09:17:37.285Z,15.90
2018-10-17T09:18:37.234Z,16.10
2018-10-17T09:19:37.364Z,16.60
2018-10-17T09:20:37.431Z,16.80
2018-10-17T09:21:37.356Z,16.10
2018-10-17T09:22:37.188Z,17.10
2018-10-17T09:23:37.082Z,17.10
2018-10-17T09:24:37.063Z,18.30
2018-10-17T09:25:37.025Z,17.60
2018-10-17T09:26:36.973Z,18.20
2018-10-17T09:27:36.937Z,18.50
2018-10-17T09:28:36.911Z,17.60
2018-10-17T09:29:36.890Z,16.30
2018-10-17T09:30:36.948Z,15.40
2018-10-17T09:31:36.851Z,15.60
2018-10-17T09:32:36.798Z,16.70
2018-10-17T09:33:36.764Z,17.70
2018-10-17T09:34:36.737Z,17.80
2018-10-17T09:35:36.792Z,17.40
2018-10-17T09:36:36.693Z,17.70
2018-10-17T09:37:36.640Z,17.10
2018-10-17T09:38:36.615Z,16.70
2018-10-17T09:39:36.595Z,17.50
2018-10-17T09:40:36.576Z,16.80
2018-10-17T09:41:36.545Z,17.20
2018-10-17T09:42:36.510Z,18.00
2018-10-17T09:43:36.478Z,19.30
2018-10-17T09:44:36.481Z,20.80
2018-10-17T09:45:36.435Z,17.20
2018-10-17T09:46:36.420Z,17.60
2018-10-17T09:47:36.392Z,19.00
2018-10-17T09:48:36.354Z,19.00
2018-10-17T09:49:36.330Z,22.00
2018-10-17T09:50:36.307Z,20.80
2018-10-17T09:51:36.286Z,20.50
2018-10-17T09:52:36.244Z,14.60
2018-10-17T09:53:36.220Z,15.30
2018-10-17T09:54:36.210Z,16.60
2018-10-17T09:55:36.175Z,17.50
2018-10-17T09:56:36.177Z,16.90
2018-10-17T09:57:36.128Z,14.80
2018-10-17T09:58:36.092Z,17.80
2018-10-17T09:59:36.080Z,15.90
2018-10-17T10:00:36.043Z,13.50
2018-10-17T10:01:36.015Z,15.50
2018-10-17T10:02:36.004Z,18.00
2018-10-17T10:03:35.972Z,14.40
2018-10-17T10:04:35.945Z,15.00
2018-10-17T10:05:35.925Z,15.00
2018-10-17T10:06:35.901Z,16.50
2018-10-17T10:07:35.894Z,14.00
2018-10-17T10:08:35.854Z,13.70
2018-10-17T10:09:35.838Z,14.40
2018-10-17T10:10:35.816Z,13.70
2018-10-17T10:11:35.792Z,15.80
2018-10-17T10:12:35.773Z,17.70
2018-10-17T10:13:35.752Z,16.00
2018-10-17T10:14:35.727Z,12.70
2018-10-17T10:15:35.713Z,17.00
2018-10-17T10:16:35.674Z,15.70
2018-10-17T10:17:35.740Z,18.40
2018-10-17T10:18:35.663Z,15.60
2018-10-17T10:19:35.611Z,12.90
2018-10-17T10:20:35.583Z,15.20
2018-10-17T10:21:35.562Z,17.60
2018-10-17T10:22:35.543Z,14.60
2018-10-17T10:23:35.571Z,13.10
2018-10-17T10:24:35.566Z,15.50
2018-10-17T10:25:35.465Z,17.70
2018-10-17T10:26:35.452Z,18.80
2018-10-17T10:27:35.474Z,16.20
2018-10-17T10:28:35.421Z,19.20
2018-10-17T10:29:35.388Z,15.70
2018-10-17T10:30:35.348Z,14.60
2018-10-17T10:31:35.346Z,15.70
2018-10-17T10:32:35.324Z,17.60
2018-10-17T10:33:35.285Z,16.90
2018-10-17T10:34:35.251Z,17.50
2018-10-17T10:35:35.249Z,21.30
2018-10-17T10:36:35.215Z,20.90
2018-10-17T10:37:35.223Z,20.90
2018-10-17T10:38:35.177Z,21.00
2018-10-17T10:39:35.140Z,21.00
2018-10-17T10:40:35.140Z,20.50
2018-10-17T10:41:35.107Z,20.80
2018-10-17T10:42:35.079Z,17.60
2018-10-17T10:43:35.058Z,18.60
2018-10-17T10:44:35.048Z,21.80
2018-10-17T10:45:35.016Z,22.20
2018-10-17T10:46:34.993Z,22.30
2018-10-17T10:47:35.031Z,21.80
2018-10-17T10:48:34.976Z,22.10
2018-10-17T10:49:34.938Z,20.90
2018-10-17T10:50:34.937Z,22.00
2018-10-17T10:51:34.928Z,19.30
2018-10-17T10:52:34.900Z,17.60
2018-10-17T10:53:34.841Z,18.80
2018-10-17T10:54:34.823Z,21.00
2018-10-17T10:55:34.796Z,19.80
2018-10-17T10:56:34.792Z,18.90
2018-10-17T10:57:34.740Z,18.20
2018-10-17T10:58:34.809Z,19.10
2018-10-17T10:59:34.870Z,17.30
2018-10-17T11:00:34.669Z,14.90
2018-10-17T11:01:34.647Z,14.10
2018-10-17T11:02:34.621Z,16.00
2018-10-17T11:03:34.596Z,14.30
2018-10-17T11:04:34.638Z,13.30
2018-10-17T11:05:34.665Z,13.60
2018-10-17T11:06:34.519Z,14.10
2018-10-17T11:07:34.547Z,12.90
2018-10-17T11:08:34.477Z,17.00
2018-10-17T11:09:34.448Z,20.60
2018-10-17T11:10:34.443Z,19.90
2018-10-17T11:11:34.399Z,20.30
2018-10-17T11:12:34.396Z,19.80
2018-10-17T11:13:34.362Z,19.30
2018-10-17T11:14:34.399Z,18.80
2018-10-17T11:15:34.322Z,15.10
2018-10-17T11:16:34.291Z,15.00
2018-10-17T11:17:34.262Z,20.10
2018-10-17T11:18:34.225Z,19.40
2018-10-17T11:19:34.205Z,19.90
2018-10-17T11:20:34.195Z,16.00
2018-10-17T11:21:34.168Z,20.80
2018-10-17T11:22:34.131Z,15.10
2018-10-17T11:23:34.109Z,12.70
2018-10-17T11:24:34.103Z,12.80
2018-10-17T11:25:34.076Z,13.90
2018-10-17T11:26:34.050Z,15.00
2018-10-17T11:27:34.011Z,14.00
2018-10-17T11:28:34.003Z,13.80
2018-10-17T11:29:33.985Z,13.70
2018-10-17T11:30:33.953Z,13.20
2018-10-17T11:31:33.923Z,14.30
2018-10-17T11:32:33.911Z,13.40
2018-10-17T11:33:33.862Z,18.50
2018-10-17T11:34:33.838Z,20.60
2018-10-17T11:35:33.815Z,20.70
2018-10-17T11:36:33.788Z,15.20
2018-10-17T11:37:33.877Z,19.90
2018-10-17T11:38:33.751Z,20.50
2018-10-17T11:39:33.717Z,21.00
2018-10-17T11:40:33.780Z,21.30
2018-10-17T11:41:33.787Z,19.70
2018-10-17T11:42:33.646Z,20.10
2018-10-17T11:43:33.632Z,20.00
2018-10-17T11:44:33.592Z,15.00
2018-10-17T11:45:33.582Z,13.40
2018-10-17T11:46:33.561Z,14.20
2018-10-17T11:47:33.529Z,15.10
2018-10-17T11:48:33.524Z,18.40
2018-10-17T11:49:33.526Z,14.90
2018-10-17T11:50:33.556Z,13.90
2018-10-17T11:51:33.440Z,13.90
2018-10-17T11:52:33.414Z,14.20
2018-10-17T11:53:33.431Z,15.90
2018-10-17T11:54:33.381Z,15.50
2018-10-17T11:55:33.362Z,19.80
2018-10-17T11:56:33.333Z,19.90
2018-10-17T11:57:33.325Z,19.60
2018-10-17T11:58:33.284Z,18.90
2018-10-17T11:59:33.315Z,18.40
2018-10-17T12:00:33.236Z,18.10
2018-10-17T12:01:33.212Z,18.30
2018-10-17T12:02:33.182Z,15.50
2018-10-17T12:03:33.256Z,17.70
2018-10-17T12:04:33.297Z,14.40
2018-10-17T12:05:33.381Z,13.70
2018-10-17T12:06:33.232Z,12.70
2018-10-17T12:07:33.062Z,12.10
2018-10-17T12:08:33.051Z,12.40
2018-10-17T12:09:33.017Z,12.60
2018-10-17T12:10:32.998Z,13.70
2018-10-17T12:11:32.970Z,15.50
2018-10-17T12:12:32.948Z,16.00
2018-10-17T12:13:32.931Z,12.90
2018-10-17T12:14:32.905Z,16.20
2018-10-17T12:15:32.874Z,12.10
2018-10-17T12:16:32.849Z,15.90
2018-10-17T12:17:32.837Z,11.60
2018-10-17T12:18:32.801Z,16.00
2018-10-17T12:19:32.852Z,12.80
2018-10-17T12:20:32.758Z,12.80
2018-10-17T12:21:32.751Z,17.20
2018-10-17T12:22:32.721Z,17.10
2018-10-17T12:23:32.690Z,13.90
2018-10-17T12:24:32.668Z,11.60
2018-10-17T12:25:32.646Z,11.80
2018-10-17T12:26:32.628Z,13.40
2018-10-17T12:27:32.590Z,15.00
2018-10-17T12:28:32.597Z,14.40
2018-10-17T12:29:32.536Z,12.70
2018-10-17T12:30:32.520Z,12.00
2018-10-17T12:31:32.497Z,14.20
2018-10-17T12:32:32.476Z,14.90
2018-10-17T12:33:32.457Z,11.90
2018-10-17T12:34:32.421Z,11.90
2018-10-17T12:35:32.412Z,13.10
2018-10-17T12:36:32.383Z,11.70
2018-10-17T12:37:32.371Z,12.10
2018-10-17T12:38:32.330Z,15.10
2018-10-17T12:39:32.377Z,14.40
2018-10-17T12:40:32.421Z,11.50
2018-10-17T12:41:32.295Z,14.30
2018-10-17T12:42:32.238Z,15.30
2018-10-17T12:43:32.213Z,15.80
2018-10-17T12:44:32.183Z,15.10
2018-10-17T12:45:32.189Z,15.60
2018-10-17T12:46:32.156Z,14.40
2018-10-17T12:47:32.137Z,13.50
2018-10-17T12:48:32.098Z,15.10
2018-10-17T12:49:32.097Z,15.50